sensor_id;sensor_type;location;lat;lon;timestamp;temperature;humidity
30069;DHT22;16894;49.456;10.644;2022-12-18T00:02:06;-13.10;99.90
30069;DHT22;16894;49.456;10.644;2022-12-18T00:04:32;-13.10;99.90
30069;DHT22;16894;49.456;10.644;2022-12-18T00:06:58;-13.00;99.90
30069;DHT22;16894;49.456;10.644;2022-12-18T00:09:24;-13.10;99.90
30069;DHT22;16894;49.456;10.644;2022-12-18T00:11:50;-13.10;99.90
30069;DHT22;16894;49.456;10.644;2022-12-18T00:14:15;-13.30;99.90
30069;DHT22;16894;49.456;10.644;2022-12-18T00:16:44;-13.40;99.90
30069;DHT22;16894;49.456;10.644;2022-12-18T00:19:11;-13.50;99.90
30069;DHT22;16894;49.456;10.644;2022-12-18T00:21:39;-13.30;99.90
30069;DHT22;16894;49.456;10.644;2022-12-18T00:24:05;-13.20;99.90
30069;DHT22;16894;49.456;10.644;2022-12-18T00:26:32;-13.20;99.90
30069;DHT22;16894;49.456;10.644;2022-12-18T00:29:10;-13.20;99.90
30069;DHT22;16894;49.456;10.644;2022-12-18T00:31:37;-13.20;99.90
30069;DHT22;16894;49.456;10.644;2022-12-18T00:34:03;-13.10;99.90
30069;DHT22;16894;49.456;10.644;2022-12-18T00:36:30;-13.20;99.90
30069;DHT22;16894;49.456;10.644;2022-12-18T00:38:57;-13.10;99.90
30069;DHT22;16894;49.456;10.644;2022-12-18T00:41:23;-13.00;99.90
30069;DHT22;16894;49.456;10.644;2022-12-18T00:44:10;-13.00;99.90
30069;DHT22;16894;49.456;10.644;2022-12-18T00:46:37;-12.90;99.90
30069;DHT22;16894;49.456;10.644;2022-12-18T00:49:02;-12.90;99.90
30069;DHT22;16894;49.456;10.644;2022-12-18T00:51:28;-12.90;99.90
30069;DHT22;16894;49.456;10.644;2022-12-18T00:53:54;-12.90;99.90
30069;DHT22;16894;49.456;10.644;2022-12-18T00:56:19;-12.90;99.90
30069;DHT22;16894;49.456;10.644;2022-12-18T00:58:45;-12.80;99.90
30069;DHT22;16894;49.456;10.644;2022-12-18T01:01:11;-12.90;99.90
30069;DHT22;16894;49.456;10.644;2022-12-18T01:03:36;-13.00;99.90
30069;DHT22;16894;49.456;10.644;2022-12-18T01:06:08;-13.10;99.90
30069;DHT22;16894;49.456;10.644;2022-12-18T01:08:35;-13.10;99.90
30069;DHT22;16894;49.456;10.644;2022-12-18T01:11:06;-13.20;99.90
30069;DHT22;16894;49.456;10.644;2022-12-18T01:13:32;-13.20;99.90
30069;DHT22;16894;49.456;10.644;2022-12-18T01:15:57;-13.30;99.90
30069;DHT22;16894;49.456;10.644;2022-12-18T01:18:23;-13.30;99.90
30069;DHT22;16894;49.456;10.644;2022-12-18T01:20:48;-13.20;99.90
30069;DHT22;16894;49.456;10.644;2022-12-18T01:23:14;-13.20;99.90
30069;DHT22;16894;49.456;10.644;2022-12-18T01:25:40;-13.20;99.90
30069;DHT22;16894;49.456;10.644;2022-12-18T01:28:05;-13.20;99.90
30069;DHT22;16894;49.456;10.644;2022-12-18T01:30:31;-13.30;99.90
30069;DHT22;16894;49.456;10.644;2022-12-18T01:32:56;-13.20;99.90
30069;DHT22;16894;49.456;10.644;2022-12-18T01:35:22;-13.10;99.90
30069;DHT22;16894;49.456;10.644;2022-12-18T01:37:48;-13.10;99.90
30069;DHT22;16894;49.456;10.644;2022-12-18T01:40:14;-13.20;99.90
30069;DHT22;16894;49.456;10.644;2022-12-18T01:42:39;-13.20;99.90
30069;DHT22;16894;49.456;10.644;2022-12-18T01:47:44;-13.20;99.90
30069;DHT22;16894;49.456;10.644;2022-12-18T01:52:43;-13.30;99.90
30069;DHT22;16894;49.456;10.644;2022-12-18T01:55:11;-13.20;99.90
30069;DHT22;16894;49.456;10.644;2022-12-18T01:57:38;-13.20;99.90
30069;DHT22;16894;49.456;10.644;2022-12-18T02:00:09;-13.10;99.90
30069;DHT22;16894;49.456;10.644;2022-12-18T02:02:35;-13.10;99.90
30069;DHT22;16894;49.456;10.644;2022-12-18T02:05:00;-13.10;99.90
30069;DHT22;16894;49.456;10.644;2022-12-18T02:10:15;-13.20;99.90
30069;DHT22;16894;49.456;10.644;2022-12-18T02:12:48;-13.20;99.90
30069;DHT22;16894;49.456;10.644;2022-12-18T02:15:22;-13.00;99.90
30069;DHT22;16894;49.456;10.644;2022-12-18T02:17:58;-12.90;99.90
30069;DHT22;16894;49.456;10.644;2022-12-18T02:20:37;-12.80;99.90
30069;DHT22;16894;49.456;10.644;2022-12-18T02:28:20;-12.90;99.90
30069;DHT22;16894;49.456;10.644;2022-12-18T02:30:48;-12.90;99.90
30069;DHT22;16894;49.456;10.644;2022-12-18T02:33:17;-12.80;99.90
30069;DHT22;16894;49.456;10.644;2022-12-18T02:35:45;-12.60;99.90
30069;DHT22;16894;49.456;10.644;2022-12-18T02:38:12;-12.60;99.90
30069;DHT22;16894;49.456;10.644;2022-12-18T02:40:40;-12.60;99.90
30069;DHT22;16894;49.456;10.644;2022-12-18T02:43:13;-12.60;99.90
30069;DHT22;16894;49.456;10.644;2022-12-18T02:45:50;-12.50;99.90
30069;DHT22;16894;49.456;10.644;2022-12-18T02:48:18;-12.50;99.90
30069;DHT22;16894;49.456;10.644;2022-12-18T02:51:07;-12.50;99.90
30069;DHT22;16894;49.456;10.644;2022-12-18T02:53:39;-12.30;99.90
30069;DHT22;16894;49.456;10.644;2022-12-18T02:56:20;-12.20;99.90
30069;DHT22;16894;49.456;10.644;2022-12-18T02:59:00;-12.20;99.90
30069;DHT22;16894;49.456;10.644;2022-12-18T03:01:43;-12.30;99.90
30069;DHT22;16894;49.456;10.644;2022-12-18T03:04:29;-12.40;99.90
30069;DHT22;16894;49.456;10.644;2022-12-18T03:06:58;-12.40;99.90
30069;DHT22;16894;49.456;10.644;2022-12-18T03:09:33;-12.40;99.90
30069;DHT22;16894;49.456;10.644;2022-12-18T03:17:38;-12.20;99.90
30069;DHT22;16894;49.456;10.644;2022-12-18T03:20:12;-12.00;99.90
30069;DHT22;16894;49.456;10.644;2022-12-18T03:22:39;-12.00;99.90
30069;DHT22;16894;49.456;10.644;2022-12-18T03:25:08;-12.00;99.90
30069;DHT22;16894;49.456;10.644;2022-12-18T03:27:38;-12.00;99.90
30069;DHT22;16894;49.456;10.644;2022-12-18T03:30:08;-11.90;99.90
30069;DHT22;16894;49.456;10.644;2022-12-18T03:32:48;-11.60;99.90
30069;DHT22;16894;49.456;10.644;2022-12-18T03:35:28;-11.50;99.90
30069;DHT22;16894;49.456;10.644;2022-12-18T03:37:54;-11.40;99.90
30069;DHT22;16894;49.456;10.644;2022-12-18T03:40:21;-11.30;99.90
30069;DHT22;16894;49.456;10.644;2022-12-18T03:42:55;-11.10;99.90
30069;DHT22;16894;49.456;10.644;2022-12-18T03:45:41;-10.80;99.90
30069;DHT22;16894;49.456;10.644;2022-12-18T03:48:19;-10.70;99.90
30069;DHT22;16894;49.456;10.644;2022-12-18T03:51:08;-10.60;99.90
30069;DHT22;16894;49.456;10.644;2022-12-18T03:53:55;-10.50;99.90
30069;DHT22;16894;49.456;10.644;2022-12-18T03:56:26;-10.30;99.90
30069;DHT22;16894;49.456;10.644;2022-12-18T03:58:53;-10.10;99.90
30069;DHT22;16894;49.456;10.644;2022-12-18T04:01:32;-10.00;99.90
30069;DHT22;16894;49.456;10.644;2022-12-18T04:04:03;-9.80;99.90
30069;DHT22;16894;49.456;10.644;2022-12-18T04:07:07;-9.70;99.90
30069;DHT22;16894;49.456;10.644;2022-12-18T04:09:46;-9.50;99.90
30069;DHT22;16894;49.456;10.644;2022-12-18T04:12:36;-9.40;99.90
30069;DHT22;16894;49.456;10.644;2022-12-18T04:15:03;-9.20;99.90
30069;DHT22;16894;49.456;10.644;2022-12-18T04:17:28;-9.10;99.90
30069;DHT22;16894;49.456;10.644;2022-12-18T04:19:54;-9.20;99.90
30069;DHT22;16894;49.456;10.644;2022-12-18T04:22:20;-9.20;99.90
30069;DHT22;16894;49.456;10.644;2022-12-18T04:24:45;-9.10;99.90
30069;DHT22;16894;49.456;10.644;2022-12-18T04:27:11;-9.10;99.90
30069;DHT22;16894;49.456;10.644;2022-12-18T04:29:36;-9.10;99.90
30069;DHT22;16894;49.456;10.644;2022-12-18T04:32:02;-9.00;99.90
30069;DHT22;16894;49.456;10.644;2022-12-18T04:34:28;-8.90;99.90
30069;DHT22;16894;49.456;10.644;2022-12-18T04:36:53;-8.90;99.90
30069;DHT22;16894;49.456;10.644;2022-12-18T04:39:19;-8.80;99.90
30069;DHT22;16894;49.456;10.644;2022-12-18T04:41:44;-8.80;99.90
30069;DHT22;16894;49.456;10.644;2022-12-18T04:44:11;-8.70;99.90
30069;DHT22;16894;49.456;10.644;2022-12-18T04:46:37;-8.70;99.90
30069;DHT22;16894;49.456;10.644;2022-12-18T04:49:02;-8.60;99.90
30069;DHT22;16894;49.456;10.644;2022-12-18T04:51:28;-8.60;99.90
30069;DHT22;16894;49.456;10.644;2022-12-18T04:53:54;-8.60;99.90
30069;DHT22;16894;49.456;10.644;2022-12-18T04:56:19;-8.50;99.90
30069;DHT22;16894;49.456;10.644;2022-12-18T04:58:45;-8.50;99.90
30069;DHT22;16894;49.456;10.644;2022-12-18T05:01:12;-8.50;99.90
30069;DHT22;16894;49.456;10.644;2022-12-18T05:03:38;-8.40;99.90
30069;DHT22;16894;49.456;10.644;2022-12-18T05:06:05;-8.40;99.90
30069;DHT22;16894;49.456;10.644;2022-12-18T05:08:32;-8.30;99.90
30069;DHT22;16894;49.456;10.644;2022-12-18T05:11:01;-8.20;99.90
30069;DHT22;16894;49.456;10.644;2022-12-18T05:13:28;-8.10;99.90
30069;DHT22;16894;49.456;10.644;2022-12-18T05:15:54;-8.00;99.90
30069;DHT22;16894;49.456;10.644;2022-12-18T05:18:19;-7.80;99.90
30069;DHT22;16894;49.456;10.644;2022-12-18T05:20:45;-7.80;99.90
30069;DHT22;16894;49.456;10.644;2022-12-18T05:23:11;-7.70;99.90
30069;DHT22;16894;49.456;10.644;2022-12-18T05:25:36;-7.60;99.90
30069;DHT22;16894;49.456;10.644;2022-12-18T05:28:02;-7.50;99.90
30069;DHT22;16894;49.456;10.644;2022-12-18T05:30:28;-7.40;99.90
30069;DHT22;16894;49.456;10.644;2022-12-18T05:32:54;-7.30;99.90
30069;DHT22;16894;49.456;10.644;2022-12-18T05:35:19;-7.20;99.90
30069;DHT22;16894;49.456;10.644;2022-12-18T05:37:45;-7.10;99.90
30069;DHT22;16894;49.456;10.644;2022-12-18T05:40:11;-7.00;99.90
30069;DHT22;16894;49.456;10.644;2022-12-18T05:42:37;-6.90;99.90
30069;DHT22;16894;49.456;10.644;2022-12-18T05:45:03;-6.90;99.90
30069;DHT22;16894;49.456;10.644;2022-12-18T05:47:29;-6.80;99.90
30069;DHT22;16894;49.456;10.644;2022-12-18T05:49:55;-6.80;99.90
30069;DHT22;16894;49.456;10.644;2022-12-18T05:52:20;-6.70;99.90
30069;DHT22;16894;49.456;10.644;2022-12-18T05:54:46;-6.70;99.90
30069;DHT22;16894;49.456;10.644;2022-12-18T05:57:11;-6.60;99.90
30069;DHT22;16894;49.456;10.644;2022-12-18T05:59:37;-6.60;99.90
30069;DHT22;16894;49.456;10.644;2022-12-18T06:02:03;-6.50;99.90
30069;DHT22;16894;49.456;10.644;2022-12-18T06:04:28;-6.50;99.90
30069;DHT22;16894;49.456;10.644;2022-12-18T06:06:54;-6.50;99.90
30069;DHT22;16894;49.456;10.644;2022-12-18T06:09:20;-6.50;99.90
30069;DHT22;16894;49.456;10.644;2022-12-18T06:11:45;-6.40;99.90
30069;DHT22;16894;49.456;10.644;2022-12-18T06:14:11;-6.40;99.90
30069;DHT22;16894;49.456;10.644;2022-12-18T06:16:37;-6.40;99.90
30069;DHT22;16894;49.456;10.644;2022-12-18T06:19:04;-6.30;99.90
30069;DHT22;16894;49.456;10.644;2022-12-18T06:21:30;-6.30;99.90
30069;DHT22;16894;49.456;10.644;2022-12-18T06:23:57;-6.30;99.90
30069;DHT22;16894;49.456;10.644;2022-12-18T06:26:22;-6.30;99.90
30069;DHT22;16894;49.456;10.644;2022-12-18T06:28:49;-6.30;99.90
30069;DHT22;16894;49.456;10.644;2022-12-18T06:31:14;-6.20;99.90
30069;DHT22;16894;49.456;10.644;2022-12-18T06:33:40;-6.20;99.90
30069;DHT22;16894;49.456;10.644;2022-12-18T06:36:11;-6.20;99.90
30069;DHT22;16894;49.456;10.644;2022-12-18T06:38:40;-6.20;99.90
30069;DHT22;16894;49.456;10.644;2022-12-18T06:41:10;-6.20;99.90
30069;DHT22;16894;49.456;10.644;2022-12-18T06:43:37;-6.10;99.90
30069;DHT22;16894;49.456;10.644;2022-12-18T06:46:03;-6.10;99.90
30069;DHT22;16894;49.456;10.644;2022-12-18T06:48:29;-6.10;99.90
30069;DHT22;16894;49.456;10.644;2022-12-18T06:50:55;-6.00;99.90
30069;DHT22;16894;49.456;10.644;2022-12-18T06:53:21;-6.10;99.90
30069;DHT22;16894;49.456;10.644;2022-12-18T06:55:47;-6.00;99.90
30069;DHT22;16894;49.456;10.644;2022-12-18T06:58:12;-6.00;99.90
30069;DHT22;16894;49.456;10.644;2022-12-18T07:00:38;-5.90;99.90
30069;DHT22;16894;49.456;10.644;2022-12-18T07:03:04;-5.90;99.90
30069;DHT22;16894;49.456;10.644;2022-12-18T07:05:29;-5.90;99.90
30069;DHT22;16894;49.456;10.644;2022-12-18T07:07:55;-5.90;99.90
30069;DHT22;16894;49.456;10.644;2022-12-18T07:10:21;-5.90;99.90
30069;DHT22;16894;49.456;10.644;2022-12-18T07:12:47;-5.90;99.90
30069;DHT22;16894;49.456;10.644;2022-12-18T07:15:12;-5.90;99.90
30069;DHT22;16894;49.456;10.644;2022-12-18T07:17:38;-5.90;99.90
30069;DHT22;16894;49.456;10.644;2022-12-18T07:20:04;-5.90;99.90
30069;DHT22;16894;49.456;10.644;2022-12-18T07:22:30;-5.80;99.90
30069;DHT22;16894;49.456;10.644;2022-12-18T07:24:55;-5.70;99.90
30069;DHT22;16894;49.456;10.644;2022-12-18T07:27:21;-5.80;99.90
30069;DHT22;16894;49.456;10.644;2022-12-18T07:29:47;-5.60;99.90
30069;DHT22;16894;49.456;10.644;2022-12-18T07:32:13;-5.50;99.90
30069;DHT22;16894;49.456;10.644;2022-12-18T07:34:39;-5.50;99.90
30069;DHT22;16894;49.456;10.644;2022-12-18T07:37:04;-5.60;99.90
30069;DHT22;16894;49.456;10.644;2022-12-18T07:39:30;-5.50;99.90
30069;DHT22;16894;49.456;10.644;2022-12-18T07:41:55;-5.50;99.90
30069;DHT22;16894;49.456;10.644;2022-12-18T07:44:40;-5.50;99.90
30069;DHT22;16894;49.456;10.644;2022-12-18T07:47:05;-5.40;99.90
30069;DHT22;16894;49.456;10.644;2022-12-18T07:49:31;-5.40;99.90
30069;DHT22;16894;49.456;10.644;2022-12-18T07:51:57;-5.40;99.90
30069;DHT22;16894;49.456;10.644;2022-12-18T07:54:23;-5.30;99.90
30069;DHT22;16894;49.456;10.644;2022-12-18T07:56:50;-5.20;99.90
30069;DHT22;16894;49.456;10.644;2022-12-18T07:59:16;-5.20;99.90
30069;DHT22;16894;49.456;10.644;2022-12-18T08:01:41;-5.20;99.90
30069;DHT22;16894;49.456;10.644;2022-12-18T08:04:07;-5.10;99.90
30069;DHT22;16894;49.456;10.644;2022-12-18T08:06:33;-5.10;99.90
30069;DHT22;16894;49.456;10.644;2022-12-18T08:08:58;-5.10;99.90
30069;DHT22;16894;49.456;10.644;2022-12-18T08:11:27;-5.10;99.90
30069;DHT22;16894;49.456;10.644;2022-12-18T08:13:54;-5.00;99.90
30069;DHT22;16894;49.456;10.644;2022-12-18T08:16:21;-5.00;99.90
30069;DHT22;16894;49.456;10.644;2022-12-18T08:18:47;-4.80;99.90
30069;DHT22;16894;49.456;10.644;2022-12-18T08:21:17;-4.80;99.90
30069;DHT22;16894;49.456;10.644;2022-12-18T08:23:43;-4.80;99.90
30069;DHT22;16894;49.456;10.644;2022-12-18T08:26:13;-4.70;99.90
30069;DHT22;16894;49.456;10.644;2022-12-18T08:28:40;-4.70;99.90
30069;DHT22;16894;49.456;10.644;2022-12-18T08:31:06;-4.60;99.90
30069;DHT22;16894;49.456;10.644;2022-12-18T08:33:31;-4.50;99.90
30069;DHT22;16894;49.456;10.644;2022-12-18T08:35:58;-4.50;99.90
30069;DHT22;16894;49.456;10.644;2022-12-18T08:38:24;-4.60;99.90
30069;DHT22;16894;49.456;10.644;2022-12-18T08:41:00;-4.50;99.90
30069;DHT22;16894;49.456;10.644;2022-12-18T08:43:26;-4.50;99.90
30069;DHT22;16894;49.456;10.644;2022-12-18T08:46:11;-4.40;99.90
30069;DHT22;16894;49.456;10.644;2022-12-18T08:48:37;-4.40;99.90
30069;DHT22;16894;49.456;10.644;2022-12-18T08:51:02;-4.40;99.90
30069;DHT22;16894;49.456;10.644;2022-12-18T08:53:28;-4.40;99.90
30069;DHT22;16894;49.456;10.644;2022-12-18T08:55:54;-4.30;99.90
30069;DHT22;16894;49.456;10.644;2022-12-18T08:58:21;-4.20;99.90
30069;DHT22;16894;49.456;10.644;2022-12-18T09:00:47;-4.20;99.90
30069;DHT22;16894;49.456;10.644;2022-12-18T09:03:14;-4.20;99.90
30069;DHT22;16894;49.456;10.644;2022-12-18T09:05:39;-4.20;99.90
30069;DHT22;16894;49.456;10.644;2022-12-18T09:08:05;-4.20;99.90
30069;DHT22;16894;49.456;10.644;2022-12-18T09:10:31;-4.30;99.90
30069;DHT22;16894;49.456;10.644;2022-12-18T09:12:57;-4.20;99.90
30069;DHT22;16894;49.456;10.644;2022-12-18T09:15:23;-4.10;99.90
30069;DHT22;16894;49.456;10.644;2022-12-18T09:17:48;-3.90;99.90
30069;DHT22;16894;49.456;10.644;2022-12-18T09:20:15;-3.90;99.90
30069;DHT22;16894;49.456;10.644;2022-12-18T09:22:41;-3.90;99.90
30069;DHT22;16894;49.456;10.644;2022-12-18T09:25:07;-3.80;99.90
30069;DHT22;16894;49.456;10.644;2022-12-18T09:27:34;-3.80;99.90
30069;DHT22;16894;49.456;10.644;2022-12-18T09:29:59;-3.70;99.90
30069;DHT22;16894;49.456;10.644;2022-12-18T09:32:25;-3.80;99.90
30069;DHT22;16894;49.456;10.644;2022-12-18T09:34:51;-3.90;99.90
30069;DHT22;16894;49.456;10.644;2022-12-18T09:37:17;-3.90;99.90
30069;DHT22;16894;49.456;10.644;2022-12-18T09:39:42;-3.80;99.90
30069;DHT22;16894;49.456;10.644;2022-12-18T09:42:20;-3.70;99.90
30069;DHT22;16894;49.456;10.644;2022-12-18T09:44:50;-3.60;99.90
30069;DHT22;16894;49.456;10.644;2022-12-18T09:49:56;-3.60;99.90
30069;DHT22;16894;49.456;10.644;2022-12-18T09:54:57;-3.40;99.90
30069;DHT22;16894;49.456;10.644;2022-12-18T09:57:25;-3.30;99.90
30069;DHT22;16894;49.456;10.644;2022-12-18T10:00:23;-3.20;99.90
30069;DHT22;16894;49.456;10.644;2022-12-18T10:02:49;-3.20;99.90
30069;DHT22;16894;49.456;10.644;2022-12-18T10:05:20;-3.20;99.90
30069;DHT22;16894;49.456;10.644;2022-12-18T10:07:55;-3.10;99.90
30069;DHT22;16894;49.456;10.644;2022-12-18T10:10:47;-3.10;99.90
30069;DHT22;16894;49.456;10.644;2022-12-18T10:13:31;-3.20;99.90
30069;DHT22;16894;49.456;10.644;2022-12-18T10:16:16;-3.20;99.90
30069;DHT22;16894;49.456;10.644;2022-12-18T10:24:42;-2.80;99.90
30069;DHT22;16894;49.456;10.644;2022-12-18T10:27:14;-2.90;99.90
30069;DHT22;16894;49.456;10.644;2022-12-18T10:29:42;-2.80;99.90
30069;DHT22;16894;49.456;10.644;2022-12-18T10:32:15;-2.80;99.90
30069;DHT22;16894;49.456;10.644;2022-12-18T10:34:41;-2.70;99.90
30069;DHT22;16894;49.456;10.644;2022-12-18T10:37:14;-2.70;99.90
30069;DHT22;16894;49.456;10.644;2022-12-18T10:39:40;-2.70;99.90
30069;DHT22;16894;49.456;10.644;2022-12-18T10:42:18;-2.50;99.90
30069;DHT22;16894;49.456;10.644;2022-12-18T10:44:44;-2.30;99.90
30069;DHT22;16894;49.456;10.644;2022-12-18T10:47:18;-2.40;99.90
30069;DHT22;16894;49.456;10.644;2022-12-18T10:49:52;-2.20;99.90
30069;DHT22;16894;49.456;10.644;2022-12-18T10:52:25;-2.10;99.90
30069;DHT22;16894;49.456;10.644;2022-12-18T10:54:59;-2.10;99.90
30069;DHT22;16894;49.456;10.644;2022-12-18T10:59:58;-2.00;99.90
30069;DHT22;16894;49.456;10.644;2022-12-18T11:02:35;-2.10;99.90
30069;DHT22;16894;49.456;10.644;2022-12-18T11:05:02;-2.10;99.90
30069;DHT22;16894;49.456;10.644;2022-12-18T11:07:48;-2.00;99.90
30069;DHT22;16894;49.456;10.644;2022-12-18T11:10:17;-2.10;99.90
30069;DHT22;16894;49.456;10.644;2022-12-18T11:12:43;-2.20;99.90
30069;DHT22;16894;49.456;10.644;2022-12-18T11:15:35;-2.30;99.90
30069;DHT22;16894;49.456;10.644;2022-12-18T11:18:01;-2.10;99.90
30069;DHT22;16894;49.456;10.644;2022-12-18T11:20:36;-2.10;99.90
30069;DHT22;16894;49.456;10.644;2022-12-18T11:23:11;-2.00;99.90
30069;DHT22;16894;49.456;10.644;2022-12-18T11:25:38;-1.80;99.90
30069;DHT22;16894;49.456;10.644;2022-12-18T11:31:20;-1.70;99.90
30069;DHT22;16894;49.456;10.644;2022-12-18T11:33:52;-1.60;99.90
30069;DHT22;16894;49.456;10.644;2022-12-18T11:36:20;-1.40;99.90
30069;DHT22;16894;49.456;10.644;2022-12-18T11:38:48;-1.30;99.90
30069;DHT22;16894;49.456;10.644;2022-12-18T11:41:27;-1.20;99.90
30069;DHT22;16894;49.456;10.644;2022-12-18T11:44:18;-1.10;99.90
30069;DHT22;16894;49.456;10.644;2022-12-18T11:46:55;-1.40;99.90
30069;DHT22;16894;49.456;10.644;2022-12-18T11:49:32;-1.60;99.90
30069;DHT22;16894;49.456;10.644;2022-12-18T11:54:28;-1.60;99.90
30069;DHT22;16894;49.456;10.644;2022-12-18T11:57:02;-1.50;99.90
30069;DHT22;16894;49.456;10.644;2022-12-18T12:02:33;-1.90;99.90
30069;DHT22;16894;49.456;10.644;2022-12-18T12:11:11;-2.10;99.90
30069;DHT22;16894;49.456;10.644;2022-12-18T12:21:36;-2.50;99.90
30069;DHT22;16894;49.456;10.644;2022-12-18T12:30:35;-2.10;99.90
30069;DHT22;16894;49.456;10.644;2022-12-18T12:32:59;-2.00;99.90
30069;DHT22;16894;49.456;10.644;2022-12-18T12:41:25;-1.80;99.90
30069;DHT22;16894;49.456;10.644;2022-12-18T12:44:20;-1.90;99.90
30069;DHT22;16894;49.456;10.644;2022-12-18T12:46:47;-1.70;99.90
30069;DHT22;16894;49.456;10.644;2022-12-18T12:49:17;-1.60;99.90
30069;DHT22;16894;49.456;10.644;2022-12-18T12:51:47;-1.50;99.90
30069;DHT22;16894;49.456;10.644;2022-12-18T12:54:24;-1.40;99.90
30069;DHT22;16894;49.456;10.644;2022-12-18T12:57:01;-1.30;99.90
30069;DHT22;16894;49.456;10.644;2022-12-18T12:59:51;-1.30;99.90
30069;DHT22;16894;49.456;10.644;2022-12-18T13:02:47;-1.40;99.90
30069;DHT22;16894;49.456;10.644;2022-12-18T13:05:54;-1.40;99.90
30069;DHT22;16894;49.456;10.644;2022-12-18T13:08:25;-1.40;99.90
30069;DHT22;16894;49.456;10.644;2022-12-18T13:10:52;-1.40;99.90
30069;DHT22;16894;49.456;10.644;2022-12-18T13:13:49;-1.30;99.90
30069;DHT22;16894;49.456;10.644;2022-12-18T13:16:19;-1.40;99.90
30069;DHT22;16894;49.456;10.644;2022-12-18T13:18:56;-1.50;99.90
30069;DHT22;16894;49.456;10.644;2022-12-18T13:21:32;-1.40;99.90
30069;DHT22;16894;49.456;10.644;2022-12-18T13:24:15;-1.50;99.90
30069;DHT22;16894;49.456;10.644;2022-12-18T13:26:45;-1.50;99.90
30069;DHT22;16894;49.456;10.644;2022-12-18T13:29:11;-1.50;99.90
30069;DHT22;16894;49.456;10.644;2022-12-18T13:36:51;-1.50;99.90
30069;DHT22;16894;49.456;10.644;2022-12-18T13:39:30;-1.60;99.90
30069;DHT22;16894;49.456;10.644;2022-12-18T13:44:36;-1.70;99.90
30069;DHT22;16894;49.456;10.644;2022-12-18T13:47:04;-1.80;99.90
30069;DHT22;16894;49.456;10.644;2022-12-18T13:49:43;-1.80;99.90
30069;DHT22;16894;49.456;10.644;2022-12-18T13:52:24;-1.80;99.90
30069;DHT22;16894;49.456;10.644;2022-12-18T13:54:57;-1.90;99.90
30069;DHT22;16894;49.456;10.644;2022-12-18T13:57:36;-2.00;99.90
30069;DHT22;16894;49.456;10.644;2022-12-18T14:02:48;-2.10;99.90
30069;DHT22;16894;49.456;10.644;2022-12-18T14:05:31;-2.00;99.90
30069;DHT22;16894;49.456;10.644;2022-12-18T14:08:05;-2.10;99.90
30069;DHT22;16894;49.456;10.644;2022-12-18T14:10:33;-2.20;99.90
30069;DHT22;16894;49.456;10.644;2022-12-18T14:13:05;-2.30;99.90
30069;DHT22;16894;49.456;10.644;2022-12-18T14:15:33;-2.40;99.90
30069;DHT22;16894;49.456;10.644;2022-12-18T14:20:32;-2.40;99.90
30069;DHT22;16894;49.456;10.644;2022-12-18T14:22:58;-2.50;99.90
30069;DHT22;16894;49.456;10.644;2022-12-18T14:25:30;-2.50;99.90
30069;DHT22;16894;49.456;10.644;2022-12-18T14:28:12;-2.60;99.90
30069;DHT22;16894;49.456;10.644;2022-12-18T14:30:41;-2.60;99.90
30069;DHT22;16894;49.456;10.644;2022-12-18T14:33:24;-2.60;99.90
30069;DHT22;16894;49.456;10.644;2022-12-18T14:36:02;-2.60;99.90
30069;DHT22;16894;49.456;10.644;2022-12-18T14:38:31;-2.70;99.90
30069;DHT22;16894;49.456;10.644;2022-12-18T14:43:38;-2.80;99.90
30069;DHT22;16894;49.456;10.644;2022-12-18T14:46:34;-2.90;99.90
30069;DHT22;16894;49.456;10.644;2022-12-18T14:49:18;-2.90;99.90
30069;DHT22;16894;49.456;10.644;2022-12-18T14:51:53;-2.90;99.90
30069;DHT22;16894;49.456;10.644;2022-12-18T14:54:20;-3.00;99.90
30069;DHT22;16894;49.456;10.644;2022-12-18T14:56:49;-3.10;99.90
30069;DHT22;16894;49.456;10.644;2022-12-18T14:59:23;-3.20;99.90
30069;DHT22;16894;49.456;10.644;2022-12-18T15:04:29;-3.30;99.90
30069;DHT22;16894;49.456;10.644;2022-12-18T15:07:13;-3.30;99.90
30069;DHT22;16894;49.456;10.644;2022-12-18T15:09:41;-3.30;99.90
30069;DHT22;16894;49.456;10.644;2022-12-18T15:12:25;-3.40;99.90
30069;DHT22;16894;49.456;10.644;2022-12-18T15:14:51;-3.50;99.90
30069;DHT22;16894;49.456;10.644;2022-12-18T15:17:22;-3.60;99.90
30069;DHT22;16894;49.456;10.644;2022-12-18T15:19:51;-3.70;99.90
30069;DHT22;16894;49.456;10.644;2022-12-18T15:22:21;-3.80;99.90
30069;DHT22;16894;49.456;10.644;2022-12-18T15:24:48;-3.80;99.90
30069;DHT22;16894;49.456;10.644;2022-12-18T15:27:27;-3.90;99.90
30069;DHT22;16894;49.456;10.644;2022-12-18T15:32:39;-3.90;99.90
30069;DHT22;16894;49.456;10.644;2022-12-18T15:37:37;-4.00;99.90
30069;DHT22;16894;49.456;10.644;2022-12-18T15:40:03;-4.00;99.90
30069;DHT22;16894;49.456;10.644;2022-12-18T15:42:29;-4.10;99.90
30069;DHT22;16894;49.456;10.644;2022-12-18T15:45:14;-4.20;99.90
30069;DHT22;16894;49.456;10.644;2022-12-18T15:47:40;-4.20;99.90
30069;DHT22;16894;49.456;10.644;2022-12-18T15:50:08;-4.30;99.90
30069;DHT22;16894;49.456;10.644;2022-12-18T15:52:41;-4.30;99.90
30069;DHT22;16894;49.456;10.644;2022-12-18T15:55:13;-4.30;99.90
30069;DHT22;16894;49.456;10.644;2022-12-18T15:57:57;-4.30;99.90
30069;DHT22;16894;49.456;10.644;2022-12-18T16:00:23;-4.30;99.90
30069;DHT22;16894;49.456;10.644;2022-12-18T16:02:49;-4.20;99.90
30069;DHT22;16894;49.456;10.644;2022-12-18T16:05:16;-4.10;99.90
30069;DHT22;16894;49.456;10.644;2022-12-18T16:07:43;-4.10;99.90
30069;DHT22;16894;49.456;10.644;2022-12-18T16:10:09;-4.10;99.90
30069;DHT22;16894;49.456;10.644;2022-12-18T16:12:35;-4.10;99.90
30069;DHT22;16894;49.456;10.644;2022-12-18T16:15:01;-4.00;99.90
30069;DHT22;16894;49.456;10.644;2022-12-18T16:17:27;-3.90;99.90
30069;DHT22;16894;49.456;10.644;2022-12-18T16:19:53;-3.90;99.90
30069;DHT22;16894;49.456;10.644;2022-12-18T16:22:20;-3.90;99.90
30069;DHT22;16894;49.456;10.644;2022-12-18T16:24:46;-3.90;99.90
30069;DHT22;16894;49.456;10.644;2022-12-18T16:27:12;-3.90;99.90
30069;DHT22;16894;49.456;10.644;2022-12-18T16:29:38;-3.90;99.90
30069;DHT22;16894;49.456;10.644;2022-12-18T16:32:03;-3.90;99.90
30069;DHT22;16894;49.456;10.644;2022-12-18T16:34:32;-3.90;99.90
30069;DHT22;16894;49.456;10.644;2022-12-18T16:37:01;-4.00;99.90
30069;DHT22;16894;49.456;10.644;2022-12-18T16:39:27;-3.90;99.90
30069;DHT22;16894;49.456;10.644;2022-12-18T16:41:53;-4.00;99.90
30069;DHT22;16894;49.456;10.644;2022-12-18T16:44:18;-4.00;99.90
30069;DHT22;16894;49.456;10.644;2022-12-18T16:46:45;-4.00;99.90
30069;DHT22;16894;49.456;10.644;2022-12-18T16:49:14;-4.00;99.90
30069;DHT22;16894;49.456;10.644;2022-12-18T16:51:41;-4.00;99.90
30069;DHT22;16894;49.456;10.644;2022-12-18T16:54:06;-4.00;99.90
30069;DHT22;16894;49.456;10.644;2022-12-18T16:56:32;-4.00;99.90
30069;DHT22;16894;49.456;10.644;2022-12-18T16:58:59;-4.00;99.90
30069;DHT22;16894;49.456;10.644;2022-12-18T17:01:27;-3.90;99.90